Time;durP1;ratioP1;P1;durP2;ratioP2;P2;SDS_P1;SDS_P2;PMS_P1;PMS_P2;Temp;Humidity;BMP_temperature;BMP_pressure;BME280_temperature;BME280_humidity;BME280_pressure;Samples;Min_cycle;Max_cycle;Signal;HPM_P1;HPM_P2
2021/01/18 00:01:46;;;;;;;39.90;22.92;;;;;;;6.06;40.75;101632.59;5046380;27;99222;-70
2021/01/18 00:04:13;;;;;;;35.83;22.60;;;;;;;6.07;41.18;101627.53;5046266;27;97256;-70
2021/01/18 00:06:41;;;;;;;41.20;23.05;;;;;;;6.10;40.47;101626.84;5044711;27;98038;-70
2021/01/18 00:09:08;;;;;;;42.10;24.10;;;;;;;6.13;40.70;101614.97;5042939;27;99105;-70
2021/01/18 00:11:36;;;;;;;39.10;22.77;;;;;;;6.13;41.14;101608.88;5044345;27;98898;-69
2021/01/18 00:14:22;;;;;;;37.87;23.13;;;;;;;6.12;40.80;101615.78;5046541;27;97260;-70
2021/01/18 00:16:50;;;;;;;39.30;22.63;;;;;;;6.11;41.08;101613.03;5050419;27;96857;-69
2021/01/18 00:19:18;;;;;;;39.20;22.70;;;;;;;6.07;40.47;101609.28;5045203;27;98838;-69
2021/01/18 00:21:46;;;;;;;45.73;23.53;;;;;;;6.07;40.59;101616.19;5025836;27;100616;-70
2021/01/18 00:24:13;;;;;;;51.65;31.23;;;;;;;6.17;40.47;101607.44;5042159;27;97202;-71
2021/01/18 00:26:46;;;;;;;52.65;33.53;;;;;;;6.28;41.01;101614.44;5048436;27;97439;-69
2021/01/18 00:29:14;;;;;;;36.47;24.45;;;;;;;6.24;40.98;101602.81;5047225;27;97870;-70
2021/01/18 00:31:44;;;;;;;41.97;24.35;;;;;;;6.22;40.71;101613.94;5052075;27;98265;-70
2021/01/18 00:34:13;;;;;;;39.25;23.25;;;;;;;6.22;40.91;101607.03;5052310;27;97506;-70
2021/01/18 00:36:48;;;;;;;39.43;23.80;;;;;;;6.21;40.78;101604.25;5045570;27;97674;-70
2021/01/18 00:39:33;;;;;;;39.00;23.53;;;;;;;6.25;41.23;101608.97;5047906;27;97810;-70
2021/01/18 00:42:01;;;;;;;37.40;22.00;;;;;;;6.25;41.07;101606.34;5052344;27;98946;-70
2021/01/18 00:44:28;;;;;;;41.33;24.17;;;;;;;6.25;40.56;101601.13;5038530;27;98258;-71
2021/01/18 00:46:56;;;;;;;36.20;22.43;;;;;;;6.25;41.28;101609.88;5055161;27;98778;-71
2021/01/18 00:49:25;;;;;;;42.97;24.67;;;;;;;6.26;40.42;101603.88;5041204;27;97956;-70
2021/01/18 00:51:52;;;;;;;42.55;24.05;;;;;;;6.28;40.89;101601.41;5049821;27;98112;-69
2021/01/18 00:54:20;;;;;;;40.70;23.43;;;;;;;6.28;41.15;101598.81;5044330;27;96899;-69
2021/01/18 00:56:57;;;;;;;49.60;32.40;;;;;;;6.36;40.64;101597.72;5044084;27;97958;-69
2021/01/18 00:59:37;;;;;;;44.40;24.67;;;;;;;6.33;40.34;101589.66;5039703;27;99112;-69
2021/01/18 01:02:05;;;;;;;40.38;24.10;;;;;;;6.31;40.36;101586.00;5040115;27;97883;-69
2021/01/18 01:04:35;;;;;;;37.38;22.20;;;;;;;6.33;41.18;101584.44;5055306;27;97488;-69
2021/01/18 01:07:03;;;;;;;37.88;23.77;;;;;;;6.34;40.90;101587.16;5052877;27;97934;-70
2021/01/18 01:09:31;;;;;;;41.53;24.07;;;;;;;6.36;41.12;101589.88;5046287;27;98160;-69
2021/01/18 01:11:59;;;;;;;41.50;25.23;;;;;;;6.36;41.22;101595.09;5047671;27;99297;-69
2021/01/18 01:14:26;;;;;;;42.50;25.23;;;;;;;6.38;40.70;101603.97;5044919;27;97928;-69
2021/01/18 01:16:53;;;;;;;46.10;24.83;;;;;;;6.35;40.64;101594.19;5054750;27;97493;-69
2021/01/18 01:19:21;;;;;;;40.17;23.70;;;;;;;6.35;41.15;101594.19;5048735;27;98526;-69
2021/01/18 01:21:50;;;;;;;40.22;24.20;;;;;;;6.32;40.50;101601.78;5049549;27;98990;-69
2021/01/18 01:24:19;;;;;;;41.77;25.83;;;;;;;6.32;41.27;101606.06;5046145;27;97702;-70
2021/01/18 01:26:46;;;;;;;40.17;24.15;;;;;;;6.32;41.22;101598.25;5040022;27;97281;-69
2021/01/18 01:29:14;;;;;;;37.70;23.80;;;;;;;6.32;40.94;101596.56;5051430;27;97992;-69
2021/01/18 01:31:41;;;;;;;46.30;26.43;;;;;;;6.33;40.60;101590.56;5054038;27;99148;-70
2021/01/18 01:34:09;;;;;;;38.45;23.30;;;;;;;6.34;40.70;101591.44;5055956;27;98217;-70
2021/01/18 01:36:41;;;;;;;42.47;25.95;;;;;;;6.31;41.31;101588.59;5050301;27;97026;-70
2021/01/18 01:39:10;;;;;;;42.33;24.60;;;;;;;6.30;41.42;101591.97;5047286;27;99214;-70
2021/01/18 01:41:37;;;;;;;43.58;24.73;;;;;;;6.28;41.07;101585.75;5051072;27;97820;-70
2021/01/18 01:44:05;;;;;;;38.28;24.35;;;;;;;6.29;40.79;101587.56;5048645;27;97536;-70
2021/01/18 01:46:34;;;;;;;39.70;24.03;;;;;;;6.32;40.82;101585.19;5039118;27;98132;-69
2021/01/18 01:49:02;;;;;;;36.92;24.80;;;;;;;6.32;41.05;101593.94;5046590;27;98088;-70
2021/01/18 01:51:30;;;;;;;37.75;23.05;;;;;;;6.32;41.03;101587.81;5048627;27;97892;-70
2021/01/18 01:53:59;;;;;;;42.00;25.35;;;;;;;6.36;41.45;101582.06;5054109;27;96878;-70
2021/01/18 01:56:28;;;;;;;36.72;21.95;;;;;;;6.36;41.36;101575.16;5043185;27;98190;-68
2021/01/18 01:58:56;;;;;;;43.37;24.27;;;;;;;6.39;41.31;101575.41;5049333;27;99026;-69
2021/01/18 02:01:24;;;;;;;42.83;23.80;;;;;;;6.41;40.55;101575.50;5048667;27;97801;-69
2021/01/18 02:03:51;;;;;;;39.37;22.83;;;;;;;6.43;40.53;101569.66;5053279;27;97860;-69
2021/01/18 02:06:19;;;;;;;37.95;22.25;;;;;;;6.45;40.41;101575.91;5047705;27;97436;-69
2021/01/18 02:08:47;;;;;;;38.95;23.02;;;;;;;6.51;40.75;101580.72;5047162;27;98009;-73
2021/01/18 02:11:15;;;;;;;40.65;24.40;;;;;;;6.52;40.97;101582.53;5053053;27;98392;-70
2021/01/18 02:14:12;;;;;;;36.03;21.17;;;;;;;6.50;40.51;101586.69;5048465;27;97306;-70
2021/01/18 02:16:44;;;;;;;40.70;24.13;;;;;;;6.51;40.97;101575.50;5051786;27;97935;-70
2021/01/18 02:19:53;;;;;;;42.30;24.40;;;;;;;6.52;41.10;101575.63;5055956;27;97306;-70
2021/01/18 02:22:45;;;;;;;38.17;22.57;;;;;;;6.52;41.22;101575.63;5051331;27;97902;-71
2021/01/18 02:25:20;;;;;;;43.93;22.43;;;;;;;6.54;41.30;101581.88;5052659;27;97248;-70
2021/01/18 02:28:12;;;;;;;41.20;23.25;;;;;;;6.53;41.24;101573.94;5056590;27;96913;-69
2021/01/18 02:31:02;;;;;;;40.65;22.77;;;;;;;6.45;41.40;101572.38;5048622;27;97851;-69
2021/01/18 02:33:59;;;;;;;35.35;23.00;;;;;;;6.39;40.84;101571.88;5031293;27;100716;-70
2021/01/18 02:36:53;;;;;;;38.92;22.67;;;;;;;6.39;40.90;101570.19;5047775;27;97215;-69
2021/01/18 02:39:27;;;;;;;36.35;23.45;;;;;;;6.45;41.11;101574.97;5055229;27;98126;-69
2021/01/18 02:41:58;;;;;;;43.08;24.02;;;;;;;6.45;41.35;101569.75;5043208;27;97085;-69
2021/01/18 02:44:27;;;;;;;41.90;25.17;;;;;;;6.47;41.30;101566.50;5040998;27;98068;-69
2021/01/18 02:46:54;;;;;;;40.33;22.60;;;;;;;6.51;41.47;101563.38;5049660;27;98217;-70
2021/01/18 02:49:23;;;;;;;40.23;23.73;;;;;;;6.56;40.84;101568.94;5054064;27;97420;-70
2021/01/18 02:51:56;;;;;;;37.25;22.05;;;;;;;6.58;40.85;101567.38;5045569;27;98354;-70
2021/01/18 02:54:23;;;;;;;47.35;32.03;;;;;;;6.67;41.04;101570.72;5046486;27;99025;-70
2021/01/18 02:56:52;;;;;;;40.95;26.17;;;;;;;6.64;41.02;101570.50;5047938;27;96902;-69
2021/01/18 02:59:20;;;;;;;38.28;22.77;;;;;;;6.66;41.18;101568.91;5049215;27;97379;-70
2021/01/18 03:02:14;;;;;;;47.05;23.27;;;;;;;6.63;41.68;101563.44;5043763;27;97280;-69
2021/01/18 03:04:58;;;;;;;39.47;23.27;;;;;;;6.63;41.09;101558.22;5052213;22;101887;-71
2021/01/18 03:07:34;;;;;;;35.92;22.95;;;;;;;6.62;41.33;101561.63;4997890;28;97706;-72
2021/01/18 03:10:05;;;;;;;43.38;23.65;;;;;;;6.65;41.79;101564.47;4996995;28;97784;-72
2021/01/18 03:12:40;;;;;;;36.35;22.48;;;;;;;6.67;41.23;101570.72;4996367;28;97712;-72
2021/01/18 03:15:11;;;;;;;41.72;22.80;;;;;;;6.66;41.47;101558.47;4999532;28;99077;-72
2021/01/18 03:17:39;;;;;;;38.00;23.17;;;;;;;6.61;41.79;101559.78;4998897;28;97449;-72
2021/01/18 03:20:08;;;;;;;37.20;22.60;;;;;;;6.62;41.89;101554.72;5000801;28;97057;-72
2021/01/18 03:22:37;;;;;;;36.30;22.27;;;;;;;6.63;42.02;101559.13;4999632;28;98844;-72
2021/01/18 03:25:07;;;;;;;38.58;24.13;;;;;;;6.63;41.73;101550.38;4998718;28;97673;-72
2021/01/18 03:27:51;;;;;;;42.50;23.73;;;;;;;6.63;41.54;101553.00;5000223;28;97200;-72
2021/01/18 03:30:20;;;;;;;38.30;23.10;;;;;;;6.63;42.07;101559.13;5000498;28;96899;-71
2021/01/18 03:32:49;;;;;;;40.33;23.40;;;;;;;6.67;42.00;101552.44;5001063;28;97840;-71
2021/01/18 03:35:17;;;;;;;41.83;23.33;;;;;;;6.66;42.14;101550.66;5000452;28;99410;-72
2021/01/18 03:37:51;;;;;;;39.55;23.05;;;;;;;6.66;41.83;101550.66;5000296;28;96908;-72
2021/01/18 03:40:20;;;;;;;41.35;24.70;;;;;;;6.68;41.25;101549.97;5002523;28;97733;-72
2021/01/18 03:42:55;;;;;;;35.22;22.40;;;;;;;6.68;41.85;101554.28;5001102;28;97913;-72
2021/01/18 03:45:42;;;;;;;38.85;23.45;;;;;;;6.69;41.29;101545.66;4998765;28;97342;-72
2021/01/18 03:48:10;;;;;;;40.30;25.08;;;;;;;6.71;41.76;101549.31;4999567;28;96759;-72
2021/01/18 03:50:39;;;;;;;38.75;23.70;;;;;;;6.75;41.81;101547.03;5001132;28;96918;-72
2021/01/18 03:53:07;;;;;;;38.95;22.70;;;;;;;6.74;41.83;101550.47;5000984;28;97393;-72
2021/01/18 03:55:35;;;;;;;43.53;23.75;;;;;;;6.73;41.65;101547.72;4999748;28;98969;-72
2021/01/18 03:58:21;;;;;;;36.63;22.48;;;;;;;6.73;41.54;101553.84;5001151;28;97805;-72
2021/01/18 04:00:49;;;;;;;42.58;24.58;;;;;;;6.73;42.42;101552.94;5000865;28;97481;-72
2021/01/18 04:03:19;;;;;;;36.17;21.98;;;;;;;6.73;41.72;101548.63;4998342;28;98076;-72
2021/01/18 04:05:46;;;;;;;37.72;22.67;;;;;;;6.73;41.68;101548.63;4998318;28;97803;-72
2021/01/18 04:08:15;;;;;;;34.10;21.63;;;;;;;6.76;41.57;101548.88;4998982;28;96734;-72
2021/01/18 04:10:43;;;;;;;36.30;22.35;;;;;;;6.77;42.21;101549.81;4999741;28;97169;-72
2021/01/18 04:13:10;;;;;;;38.97;23.50;;;;;;;6.74;42.28;101542.63;4998856;28;101470;-71
2021/01/18 04:15:37;;;;;;;39.63;23.33;;;;;;;6.75;42.33;101539.22;5001224;28;98953;-71
2021/01/18 04:18:05;;;;;;;41.72;23.23;;;;;;;6.78;42.25;101541.16;5000490;28;97412;-72
2021/01/18 04:20:33;;;;;;;35.50;22.52;;;;;;;6.79;41.78;101535.16;4999446;28;99058;-71
2021/01/18 04:23:04;;;;;;;40.58;24.27;;;;;;;6.79;41.87;101535.16;4998872;28;99006;-72
2021/01/18 04:25:32;;;;;;;39.58;23.63;;;;;;;6.79;41.81;101535.16;4998140;28;97332;-71
2021/01/18 04:28:01;;;;;;;42.55;24.40;;;;;;;6.80;42.38;101531.75;4999760;28;97142;-71
2021/01/18 04:30:46;;;;;;;36.97;23.65;;;;;;;6.84;42.49;101523.41;5000407;28;97079;-71
2021/01/18 04:33:14;;;;;;;35.80;22.70;;;;;;;6.85;41.90;101530.41;4998706;28;98607;-71
2021/01/18 04:35:42;;;;;;;37.75;21.73;;;;;;;6.87;41.95;101537.59;4999951;28;97937;-72
2021/01/18 04:38:09;;;;;;;38.63;23.27;;;;;;;6.88;42.05;101536.78;5001678;28;97389;-72
2021/01/18 04:40:38;;;;;;;40.13;24.17;;;;;;;6.90;41.67;101531.69;5000860;28;98587;-71
2021/01/18 04:43:13;;;;;;;41.47;24.95;;;;;;;6.89;41.90;101541.25;4998319;28;98587;-71
2021/01/18 04:45:41;;;;;;;40.35;23.75;;;;;;;6.91;42.31;101529.22;4999170;28;97882;-70
2021/01/18 04:48:09;;;;;;;43.67;23.30;;;;;;;6.92;42.53;101530.13;4999892;28;98028;-71
2021/01/18 04:50:37;;;;;;;39.95;22.75;;;;;;;6.94;42.56;101541.59;4998042;28;97920;-72
2021/01/18 04:53:09;;;;;;;39.30;23.95;;;;;;;6.92;42.10;101544.09;4997147;28;98243;-71
2021/01/18 04:55:50;;;;;;;40.70;24.10;;;;;;;6.91;42.80;101537.06;5000155;28;98796;-71
2021/01/18 04:58:18;;;;;;;39.08;23.83;;;;;;;6.93;42.25;101535.44;4998685;28;97633;-71
2021/01/18 05:00:47;;;;;;;43.38;25.30;;;;;;;6.92;42.71;101528.41;4998705;28;97274;-73
2021/01/18 05:03:17;;;;;;;42.85;23.98;;;;;;;6.91;42.57;101533.53;4997047;28;99355;-72
2021/01/18 05:06:20;;;;;;;44.63;24.58;;;;;;;6.96;42.61;101532.19;5012301;27;98002;-71
2021/01/18 05:09:33;;;;;;;41.75;22.35;;;;;;;6.99;42.30;101532.41;4996913;28;97912;-71
2021/01/18 05:12:03;;;;;;;39.97;23.08;;;;;;;7.03;42.25;101531.88;4962194;28;97625;-72
2021/01/18 05:14:31;;;;;;;44.42;26.35;;;;;;;7.02;41.95;101530.06;4998681;28;99120;-72
2021/01/18 05:16:59;;;;;;;46.42;26.48;;;;;;;7.00;41.98;101535.19;4998058;28;98117;-72
2021/01/18 05:19:28;;;;;;;41.25;23.88;;;;;;;7.00;42.16;101529.03;4999235;28;97562;-73
2021/01/18 05:21:55;;;;;;;41.95;22.98;;;;;;;7.02;42.72;101530.06;4999145;28;97420;-72
2021/01/18 05:24:23;;;;;;;42.25;24.17;;;;;;;7.05;42.00;101522.47;4996832;28;98133;-72
2021/01/18 05:27:08;;;;;;;39.10;23.20;;;;;;;7.05;42.15;101533.81;4998221;28;98116;-72
2021/01/18 05:29:37;;;;;;;39.05;23.23;;;;;;;7.04;42.37;101536.31;4999364;28;96892;-72
2021/01/18 05:32:20;;;;;;;42.15;25.20;;;;;;;7.07;42.28;101534.88;4998516;28;97311;-72
2021/01/18 05:34:51;;;;;;;40.97;25.75;;;;;;;7.09;42.49;101528.06;5016655;27;97002;-72
2021/01/18 05:37:19;;;;;;;37.53;23.95;;;;;;;7.12;42.42;101529.97;5003056;28;97813;-72
2021/01/18 05:39:46;;;;;;;44.63;25.15;;;;;;;7.13;42.07;101529.22;5004054;28;97063;-72
2021/01/18 05:42:22;;;;;;;40.05;22.38;;;;;;;7.13;42.30;101529.22;5002153;28;97117;-73
2021/01/18 05:44:51;;;;;;;40.58;23.85;;;;;;;7.14;42.75;101533.63;5001176;28;98311;-72
2021/01/18 05:47:20;;;;;;;40.13;24.02;;;;;;;7.19;42.14;101527.97;5001862;28;98527;-73
2021/01/18 05:49:50;;;;;;;39.65;23.08;;;;;;;7.23;42.49;101529.13;5001983;28;96799;-73
2021/01/18 05:52:28;;;;;;;39.50;22.20;;;;;;;7.24;42.40;101525.75;5002689;28;97845;-73
2021/01/18 05:55:14;;;;;;;42.13;22.58;;;;;;;7.26;42.87;101526.78;5000891;28;98005;-74
2021/01/18 05:57:46;;;;;;;38.47;22.40;;;;;;;7.27;42.60;101525.97;5000200;28;97579;-73
2021/01/18 06:00:15;;;;;;;37.10;22.05;;;;;;;7.32;42.23;101524.59;5002119;28;97866;-73
2021/01/18 06:02:47;;;;;;;41.42;23.05;;;;;;;7.29;41.99;101524.38;5001608;28;97017;-73
2021/01/18 06:05:16;;;;;;;43.70;24.73;;;;;;;7.32;42.62;101522.00;4998311;28;99324;-73
2021/01/18 06:07:43;;;;;;;43.25;22.80;;;;;;;7.34;42.53;101525.63;4998801;28;98230;-71
2021/01/18 06:10:11;;;;;;;43.65;24.00;;;;;;;7.34;42.54;101535.19;5000231;28;97706;-73
2021/01/18 06:12:39;;;;;;;45.08;24.02;;;;;;;7.37;42.49;101528.50;4999276;28;97344;-74
2021/01/18 06:15:10;;;;;;;45.65;25.17;;;;;;;7.38;42.28;101527.72;4998801;28;98138;-73
2021/01/18 06:17:38;;;;;;;43.92;24.85;;;;;;;7.41;42.27;101538.38;4998260;28;100215;-73
2021/01/18 06:20:07;;;;;;;38.67;22.92;;;;;;;7.44;42.48;101541.25;5000985;28;97369;-73
2021/01/18 06:22:34;;;;;;;39.97;22.88;;;;;;;7.45;42.77;101539.53;5001212;28;98063;-73
2021/01/18 06:25:11;;;;;;;40.05;22.13;;;;;;;7.48;42.87;101540.69;4999667;28;98076;-72
2021/01/18 06:27:39;;;;;;;43.35;23.08;;;;;;;7.47;42.50;101546.72;4999893;28;97502;-72
2021/01/18 06:30:21;;;;;;;44.53;22.63;;;;;;;7.51;42.49;101545.25;5001333;28;97149;-72
2021/01/18 06:32:54;;;;;;;44.05;22.65;;;;;;;7.53;42.27;101546.28;5001903;28;96835;-73
2021/01/18 06:35:24;;;;;;;46.92;23.63;;;;;;;7.56;42.30;101547.41;5015262;27;97968;-73
2021/01/18 06:37:58;;;;;;;44.70;23.27;;;;;;;7.59;42.62;101554.59;4999638;28;97488;-72
2021/01/18 06:40:31;;;;;;;55.05;23.95;;;;;;;7.63;43.01;101554.94;4998949;28;97004;-72
2021/01/18 06:42:59;;;;;;;50.20;23.35;;;;;;;7.65;42.44;101553.34;4994579;28;97379;-73
2021/01/18 06:45:34;;;;;;;49.42;24.48;;;;;;;7.63;42.76;101554.03;5000693;28;99360;-73
2021/01/18 06:48:03;;;;;;;47.85;23.73;;;;;;;7.68;42.91;101557.91;5000923;28;97913;-74
2021/01/18 06:50:33;;;;;;;50.05;23.83;;;;;;;7.70;42.36;101552.00;5001613;28;97732;-74
2021/01/18 06:53:17;;;;;;;48.17;23.63;;;;;;;7.70;43.05;101566.78;5016258;27;96867;-74
2021/01/18 06:56:06;;;;;;;54.90;24.52;;;;;;;7.72;42.64;101573.94;4998973;28;98060;-73
2021/01/18 06:58:41;;;;;;;72.28;35.85;;;;;;;7.82;43.12;101566.03;4998836;28;99065;-73
2021/01/18 07:01:14;;;;;;;52.22;28.73;;;;;;;7.81;43.26;101572.03;5014266;27;97217;-72
2021/01/18 07:03:43;;;;;;;59.67;26.42;;;;;;;7.83;43.36;101565.22;4996713;28;97637;-73
2021/01/18 07:06:32;;;;;;;49.78;24.02;;;;;;;7.84;43.37;101572.28;4996970;28;98347;-73
2021/01/18 07:09:01;;;;;;;48.17;21.65;;;;;;;7.90;43.13;101561.38;5007199;27;102332;-73
2021/01/18 07:11:46;;;;;;;47.67;23.70;;;;;;;7.93;43.08;101573.00;4997975;28;97477;-73
2021/01/18 07:14:14;;;;;;;45.28;23.77;;;;;;;7.97;43.01;101563.66;4998866;28;97998;-73
2021/01/18 07:16:43;;;;;;;48.15;23.05;;;;;;;7.97;43.24;101566.28;4997000;28;97950;-73
2021/01/18 07:19:14;;;;;;;46.75;24.40;;;;;;;7.96;42.92;101570.59;4998412;28;99136;-71
2021/01/18 07:21:43;;;;;;;46.85;23.10;;;;;;;8.02;43.06;101572.75;4998708;28;97592;-71
2021/01/18 07:24:30;;;;;;;51.03;24.95;;;;;;;8.04;43.04;101577.31;4999227;28;98252;-69
2021/01/18 07:27:16;;;;;;;40.47;22.88;;;;;;;8.04;43.06;101579.94;4999120;28;97891;-71
2021/01/18 07:29:44;;;;;;;51.88;23.45;;;;;;;8.06;43.03;101580.94;4997743;28;98166;-71
2021/01/18 07:32:12;;;;;;;48.53;22.75;;;;;;;8.06;42.84;101575.72;4998806;28;97762;-72
2021/01/18 07:34:40;;;;;;;47.03;24.23;;;;;;;8.08;42.96;101581.09;4998337;28;96818;-72
2021/01/18 07:37:09;;;;;;;49.05;23.65;;;;;;;8.10;43.20;101579.50;4992164;28;98974;-72
2021/01/18 07:40:09;;;;;;;41.33;22.05;;;;;;;8.16;43.52;101580.84;4997098;28;97965;-73
2021/01/18 07:42:41;;;;;;;48.17;23.55;;;;;;;8.16;43.11;101575.63;4998881;28;97598;-72
2021/01/18 07:45:14;;;;;;;38.00;19.45;;;;;;;8.23;42.99;101572.66;4998747;28;97021;-70
2021/01/18 07:48:06;;;;;;;32.75;17.60;;;;;;;8.30;44.03;101573.16;4996979;28;97962;-70
2021/01/18 07:50:35;;;;;;;28.10;16.23;;;;;;;8.32;42.84;101579.44;4997626;28;97863;-70
2021/01/18 07:53:05;;;;;;;28.52;14.73;;;;;;;8.33;43.24;101576.91;4996936;28;97434;-69
2021/01/18 07:55:33;;;;;;;22.08;12.93;;;;;;;8.34;43.65;101572.59;4996383;28;98013;-69
2021/01/18 07:58:16;;;;;;;23.60;13.65;;;;;;;8.40;44.55;101575.66;5013725;27;99258;-69
2021/01/18 08:00:45;;;;;;;23.00;13.07;;;;;;;8.45;43.61;101571.69;4992239;28;99731;-69
2021/01/18 08:03:29;;;;;;;22.42;12.32;;;;;;;8.54;45.08;101564.50;4999947;28;99592;-68
2021/01/18 08:06:15;;;;;;;21.10;11.48;;;;;;;8.61;45.08;101566.78;4999450;28;97995;-69
2021/01/18 08:08:44;;;;;;;15.55;9.85;;;;;;;8.68;43.75;101569.03;4998657;28;97846;-70
2021/01/18 08:11:21;;;;;;;20.45;11.90;;;;;;;8.75;44.09;101571.31;4999368;28;99058;-70
2021/01/18 08:13:53;;;;;;;18.33;11.15;;;;;;;8.77;43.59;101569.72;4997478;28;97214;-69
2021/01/18 08:16:26;;;;;;;16.42;11.98;;;;;;;8.80;43.24;101570.84;4998805;28;97503;-68
2021/01/18 08:19:00;;;;;;;15.23;10.82;;;;;;;8.85;43.50;101572.06;4997852;28;99913;-68
2021/01/18 08:22:09;;;;;;;15.88;10.80;;;;;;;8.92;44.28;101573.44;4999210;28;99574;-69
2021/01/18 08:25:04;;;;;;;14.82;9.43;;;;;;;8.95;43.60;101568.41;4997285;28;97323;-70
2021/01/18 08:27:57;;;;;;;25.83;14.48;;;;;;;9.04;45.24;101572.63;4998126;28;97100;-69
2021/01/18 08:30:39;;;;;;;19.08;10.95;;;;;;;9.04;45.45;101574.31;4999290;28;97877;-69
2021/01/18 08:33:08;;;;;;;13.60;9.02;;;;;;;9.07;45.19;101562.34;4998425;28;98192;-71
2021/01/18 08:35:51;;;;;;;16.77;9.38;;;;;;;9.13;45.73;101569.72;4997107;28;98694;-70
2021/01/18 08:38:27;;;;;;;20.05;10.25;;;;;;;9.18;44.85;101568.34;4994602;28;96766;-69
2021/01/18 08:41:05;;;;;;;19.42;10.70;;;;;;;9.25;45.02;101580.19;4992624;28;97879;-70
2021/01/18 08:43:48;;;;;;;17.58;10.65;;;;;;;9.31;45.68;101583.22;4990191;28;98396;-71
2021/01/18 08:46:34;;;;;;;14.27;8.80;;;;;;;9.34;44.75;101584.38;4989774;28;98160;-71
2021/01/18 08:49:28;;;;;;;16.92;10.23;;;;;;;9.39;46.03;101579.44;4991104;28;97697;-68
2021/01/18 08:51:56;;;;;;;18.40;10.32;;;;;;;9.44;44.47;101581.59;4976305;28;99292;-69
2021/01/18 08:54:32;;;;;;;15.32;9.25;;;;;;;9.46;44.96;101579.06;4988955;28;99416;-70
2021/01/18 08:57:23;;;;;;;17.10;9.45;;;;;;;9.49;45.48;101577.56;4989578;28;98027;-69
2021/01/18 09:00:03;;;;;;;24.10;9.98;;;;;;;9.54;45.26;101575.28;4986494;28;99000;-70
2021/01/18 09:02:31;;;;;;;15.45;9.40;;;;;;;9.56;44.75;101586.78;4988379;28;100670;-70
2021/01/18 09:05:12;;;;;;;15.18;10.07;;;;;;;9.57;45.42;101586.88;4976342;28;98184;-70
2021/01/18 09:07:44;;;;;;;19.35;10.50;;;;;;;9.59;44.54;101592.22;4993375;28;97224;-70
2021/01/18 09:10:13;;;;;;;18.45;10.00;;;;;;;9.59;44.57;101593.16;4988215;28;98184;-70
2021/01/18 09:12:41;;;;;;;17.30;9.73;;;;;;;9.59;45.06;101590.53;4990805;28;98463;-69
2021/01/18 09:15:27;;;;;;;12.38;8.98;;;;;;;9.61;45.13;101586.31;4988742;28;98141;-70
2021/01/18 09:17:57;;;;;;;17.23;9.38;;;;;;;9.66;44.76;101594.47;4991189;28;98529;-70
2021/01/18 09:20:24;;;;;;;15.10;9.25;;;;;;;9.67;44.59;101583.19;4991472;28;98842;-71
2021/01/18 09:22:53;;;;;;;17.98;9.20;;;;;;;9.69;44.63;101595.59;4993212;28;97666;-70
2021/01/18 09:25:41;;;;;;;12.95;8.63;;;;;;;9.73;45.07;101588.84;4993829;28;98006;-72
2021/01/18 09:28:09;;;;;;;15.10;9.13;;;;;;;9.76;44.83;101592.59;4994854;28;98961;-71
2021/01/18 09:30:37;;;;;;;23.35;11.43;;;;;;;9.83;45.35;101594.84;4995152;28;97368;-72
2021/01/18 09:33:07;;;;;;;14.65;8.57;;;;;;;9.87;45.49;101590.72;4993255;28;99163;-72
2021/01/18 09:35:37;;;;;;;15.02;7.68;;;;;;;9.91;45.40;101582.22;5006737;27;98255;-71
2021/01/18 09:38:06;;;;;;;14.77;7.90;;;;;;;9.98;44.91;101587.13;4992628;28;97124;-70
2021/01/18 09:40:36;;;;;;;13.43;9.07;;;;;;;10.01;44.86;101582.06;4988067;28;98207;-69
2021/01/18 09:43:04;;;;;;;14.38;8.35;;;;;;;10.05;44.58;101585.00;4988940;28;98044;-70
2021/01/18 09:45:33;;;;;;;19.55;8.00;;;;;;;10.12;44.93;101581.13;4988816;28;100087;-70
2021/01/18 09:48:03;;;;;;;13.88;8.13;;;;;;;10.15;44.25;101582.22;5005317;27;98059;-72
2021/01/18 09:50:38;;;;;;;12.45;7.88;;;;;;;10.15;44.79;101576.97;4987995;28;97486;-70
2021/01/18 09:53:09;;;;;;;15.90;7.45;;;;;;;10.19;44.57;101580.72;5001271;27;98801;-71
2021/01/18 09:55:41;;;;;;;8.93;7.40;;;;;;;10.23;44.49;101576.59;4984511;28;97962;-73
2021/01/18 09:58:13;;;;;;;9.73;7.57;;;;;;;10.27;44.14;101579.53;4992019;28;98645;-71
2021/01/18 10:00:42;;;;;;;9.70;7.57;;;;;;;10.28;44.08;101578.72;4993680;28;96838;-71
2021/01/18 10:03:11;;;;;;;12.82;8.88;;;;;;;10.28;44.51;101585.66;4990858;28;100364;-71
2021/01/18 10:05:40;;;;;;;16.27;6.45;;;;;;;10.28;44.33;101564.66;5003658;27;97637;-70
2021/01/18 10:08:14;;;;;;;14.93;7.20;;;;;;;10.34;44.49;101570.34;4994323;28;97884;-72
2021/01/18 10:10:45;;;;;;;7.72;6.63;;;;;;;10.41;44.41;101569.94;4988673;28;98768;-70
2021/01/18 10:13:16;;;;;;;9.82;7.25;;;;;;;10.44;45.20;101567.53;4995145;28;97920;-71
2021/01/18 10:15:45;;;;;;;12.40;7.30;;;;;;;10.47;44.62;101559.84;4995971;28;100033;-70
2021/01/18 10:18:32;;;;;;;12.80;7.10;;;;;;;10.48;45.77;101559.00;4996908;28;97457;-71
2021/01/18 10:21:00;;;;;;;10.50;6.85;;;;;;;10.52;44.63;101555.78;4996935;28;97790;-68
2021/01/18 10:23:33;;;;;;;9.65;6.53;;;;;;;10.55;44.70;101549.00;4988452;28;98373;-69
2021/01/18 10:26:18;;;;;;;10.85;6.63;;;;;;;10.56;45.18;101545.59;4993252;28;99197;-70
2021/01/18 10:28:51;;;;;;;8.52;6.45;;;;;;;10.59;44.78;101547.50;4992796;28;98595;-69
2021/01/18 10:31:19;;;;;;;8.02;5.95;;;;;;;10.65;44.56;101553.16;4991925;28;97958;-69
2021/01/18 10:33:46;;;;;;;20.83;8.17;;;;;;;10.74;44.49;101545.88;4993629;28;97791;-72
2021/01/18 10:36:32;;;;;;;11.82;6.95;;;;;;;10.82;45.11;101539.41;4996552;28;97659;-70
2021/01/18 10:39:00;;;;;;;10.93;7.30;;;;;;;10.86;44.60;101541.38;5000114;28;97165;-71
2021/01/18 10:41:28;;;;;;;7.53;6.72;;;;;;;10.95;44.14;101537.63;4999499;28;98097;-70
2021/01/18 10:44:14;;;;;;;10.15;6.13;;;;;;;11.00;44.46;101533.56;5015308;27;97029;-70
2021/01/18 10:46:49;;;;;;;9.88;6.10;;;;;;;11.01;44.36;101537.09;5000193;28;98441;-70
2021/01/18 10:49:35;;;;;;;10.35;6.53;;;;;;;10.98;44.43;101535.19;4998854;28;97209;-69
2021/01/18 10:52:05;;;;;;;11.00;7.10;;;;;;;10.96;44.14;101531.56;4999309;28;98004;-69
2021/01/18 10:54:34;;;;;;;8.32;6.65;;;;;;;10.98;44.27;101529.03;4998231;28;98058;-70
2021/01/18 10:57:03;;;;;;;9.88;6.78;;;;;;;11.05;44.00;101536.50;4999654;28;99535;-69
2021/01/18 10:59:30;;;;;;;8.18;6.20;;;;;;;11.05;44.59;101533.88;4997908;28;97991;-70
2021/01/18 11:02:03;;;;;;;7.10;6.25;;;;;;;11.18;43.92;101531.19;4999829;28;97709;-70
2021/01/18 11:04:34;;;;;;;9.52;6.88;;;;;;;11.15;43.76;101530.97;4996127;28;97857;-70
2021/01/18 11:07:03;;;;;;;8.35;6.13;;;;;;;11.17;43.97;101537.25;5014714;27;97614;-72
2021/01/18 11:09:31;;;;;;;8.65;6.78;;;;;;;11.19;43.69;101533.91;4999317;28;96895;-72
2021/01/18 11:12:02;;;;;;;15.48;8.35;;;;;;;11.22;43.90;101526.22;4996565;28;99274;-72
2021/01/18 11:14:31;;;;;;;14.98;8.38;;;;;;;11.30;44.60;101525.78;4998797;28;98961;-72
2021/01/18 11:17:00;;;;;;;7.40;5.90;;;;;;;11.34;44.05;101519.91;4998381;28;97856;-71
2021/01/18 11:19:28;;;;;;;8.13;6.43;;;;;;;11.36;44.29;101521.81;4998268;28;97410;-71
2021/01/18 11:21:56;;;;;;;9.15;6.22;;;;;;;11.41;44.27;101522.09;4999241;28;99115;-71
2021/01/18 11:24:24;;;;;;;9.35;6.70;;;;;;;11.40;43.73;101513.31;5000038;28;99986;-70
2021/01/18 11:26:52;;;;;;;9.68;7.18;;;;;;;11.39;44.03;101511.47;4997902;28;98603;-71
2021/01/18 11:29:21;;;;;;;6.25;5.68;;;;;;;11.36;43.76;101506.03;5014990;27;97555;-70
2021/01/18 11:31:49;;;;;;;11.23;6.85;;;;;;;11.39;43.89;101502.66;4996160;28;98226;-70
2021/01/18 11:34:18;;;;;;;15.57;8.57;;;;;;;11.41;44.27;101503.66;4995616;28;99067;-71
2021/01/18 11:36:46;;;;;;;10.57;6.15;;;;;;;11.41;44.21;101499.31;4997356;28;97235;-71
2021/01/18 11:39:13;;;;;;;8.38;7.03;;;;;;;11.44;43.95;101494.25;4996621;28;97497;-71
2021/01/18 11:41:40;;;;;;;10.55;6.38;;;;;;;11.48;44.00;101490.97;4996373;28;96863;-71
2021/01/18 11:44:08;;;;;;;8.00;6.35;;;;;;;11.49;43.90;101476.13;4995816;28;98321;-72
2021/01/18 11:46:56;;;;;;;9.20;6.20;;;;;;;11.54;43.73;101472.94;4995325;28;97181;-71